Flight Track Log - Related Links

Times and Time Zones

All times are in EDT time to prevent confusion due to time zone crossing. See the EJA387 flight status page for this flight to view local times or setup timezone preferences in your user account.

Time Position Orientation Groundspeed Altitude Reporting Facility
EDT Latitude Longitude Course Direction KTS MPH feet Rate Location/Type
Sun 10:44:37 PM 39.4422 -74.5356 225° Southwest 198 228 2,100  Level Washington Center
Sun 10:46:08 PM 39.3783 -74.6169 225° Southwest 277 319 6,600 1,920 Climbing Washington Center
Sun 10:47:07 PM 39.3456 -74.7058 245° Southwest 268 308 6,900 198 Climbing Washington Center
Sun 10:48:09 PM 39.3189 -74.7842 246° West 268 308 7,000 1,450 Climbing Washington Center
Sun 10:49:07 PM 39.2883 -74.8731 246° West 268 308 9,800 2,924 Climbing Washington Center
Sun 10:50:08 PM 39.2597 -74.9750 250° West 291 335 12,800 2,874 Climbing Washington Center
Sun 10:51:06 PM 39.2872 -75.0794 289° West 290 334 15,500 1,966 Climbing Washington Center
Sun 10:52:07 PM 39.3586 -75.1728 315° West 301 346 16,700 738 Climbing Washington Center
Sun 10:53:08 PM 39.4297 -75.2717 313° West 343 395 17,000 555 Climbing Washington Center
Sun 10:54:06 PM 39.4697 -75.3953 293° West 353 406 17,800 1,794 Climbing Washington Center
Sun 10:56:22 PM 39.5556 -75.6633 293° West 350 403 22,800 1,959 Climbing New York Center
Sun 10:57:22 PM 39.5942 -75.7847 292° West 355 409 24,200 1,150 Climbing New York Center
Sun 10:58:22 PM 39.6325 -75.9089 292° West 360 414 25,100 900 Climbing New York Center
Sun 10:59:22 PM 39.6708 -76.0356 291° West 373 429 26,000 1,350 Climbing New York Center
Sun 11:00:22 PM 39.7108 -76.1656 292° West 380 437 27,800 1,500 Climbing New York Center
Sun 11:01:22 PM 39.7486 -76.2928 291° West 380 437 29,000 1,250 Climbing New York Center
Sun 11:02:22 PM 39.7903 -76.4256 292° West 386 444 30,300 1,400 Climbing New York Center
Sun 11:03:22 PM 39.8294 -76.5614 291° West 386 444 31,800 1,600 Climbing New York Center
Sun 11:04:22 PM 39.8672 -76.6833 292° West 386 444 33,500 1,400 Climbing New York Center
Sun 11:05:22 PM 39.9069 -76.8086 292° West 381 438 34,600 1,100 Climbing New York Center
Sun 11:06:22 PM 39.9439 -76.9364 291° West 376 433 35,700 1,050 Climbing New York Center
Sun 11:07:22 PM 39.9811 -77.0644 291° West 381 438 36,700 1,050 Climbing New York Center
Sun 11:08:22 PM 40.0200 -77.1925 292° West 381 438 37,800 894 Climbing New York Center
Sun 11:10:03 PM 40.0786 -77.3867 292° West 372 428 39,100 708 Climbing Cleveland Center
Sun 11:11:03 PM 40.1175 -77.5125 292° West 372 428 39,700 450 Climbing Cleveland Center
Sun 11:12:03 PM 40.1542 -77.6383 291° West 372 428 40,000 150 Climbing Cleveland Center
Sun 11:13:03 PM 40.1928 -77.7672 291° West 372 428 40,000  Level Cleveland Center
Sun 11:14:03 PM 40.2314 -77.8989 291° West 383 441 40,000  Level Cleveland Center
Sun 11:15:03 PM 40.2658 -78.0336 289° West 389 448 40,000  Level Cleveland Center
Sun 11:16:03 PM 40.3000 -78.1631 289° West 389 448 40,000  Level Cleveland Center
Sun 11:17:03 PM 40.3381 -78.2950 291° West 384 442 40,000  Level Cleveland Center
Sun 11:18:03 PM 40.3761 -78.4272 291° West 384 442 40,000  Level Cleveland Center
Sun 11:19:03 PM 40.4119 -78.5597 290° West 384 442 40,000  Level Cleveland Center
Sun 11:20:03 PM 40.4539 -78.6894 293° West 384 442 40,000  Level Cleveland Center
Sun 11:21:03 PM 40.4956 -78.8219 293° West 384 442 40,000  Level Cleveland Center
Sun 11:22:03 PM 40.5392 -78.9519 294° West 389 448 40,000  Level Cleveland Center
Sun 11:23:03 PM 40.5828 -79.0850 293° West 389 448 40,000  Level Cleveland Center
Sun 11:24:03 PM 40.6325 -79.2289 295° West 389 448 40,000  Level Cleveland Center
Sun 11:25:03 PM 40.6756 -79.3594 294° West 389 448 40,000  Level Cleveland Center
Sun 11:26:03 PM 40.7186 -79.4900 294° West 389 448 40,000  Level Cleveland Center
Sun 11:27:03 PM 40.7614 -79.6208 293° West 389 448 40,000  Level Cleveland Center
Sun 11:28:03 PM 40.8042 -79.7547 293° West 389 448 40,000  Level Cleveland Center
Sun 11:29:03 PM 40.8447 -79.8858 292° West 389 448 40,000  Level Cleveland Center
Sun 11:30:03 PM 40.8872 -80.0175 293° West 389 448 40,000  Level Cleveland Center
Sun 11:31:03 PM 40.9253 -80.1378 293° West 394 453 40,000  Level Cleveland Center
Sun 11:32:03 PM 40.9672 -80.2725 292° West 394 453 40,000  Level Cleveland Center
Sun 11:33:03 PM 41.0114 -80.4069 294° West 394 453 40,000  Level Cleveland Center
Sun 11:34:03 PM 41.0511 -80.5392 292° West 394 453 40,000  Level Cleveland Center
Sun 11:35:03 PM 41.0928 -80.6742 292° West 389 448 40,000  Level Cleveland Center
Sun 11:36:03 PM 41.1342 -80.8231 290° West 389 448 40,000  Level Cleveland Center
Sun 11:37:03 PM 41.1756 -80.9528 293° West 389 448 40,000  Level Cleveland Center
Sun 11:38:03 PM 41.2147 -81.0856 291° West 389 448 40,000  Level Cleveland Center
Sun 11:39:03 PM 41.2558 -81.2156 293° West 389 448 40,000  Level Cleveland Center
Sun 11:40:03 PM 41.2944 -81.3458 292° West 384 442 40,000  Level Cleveland Center
Sun 11:41:03 PM 41.3333 -81.4653 293° West 384 442 40,000  Level Cleveland Center
Sun 11:42:03 PM 41.3717 -81.5986 291° West 384 442 40,000  Level Cleveland Center
Sun 11:43:03 PM 41.4161 -81.7517 291° West 399 459 40,000  Level Cleveland Center
Sun 11:44:03 PM 41.4564 -81.8908 291° West 399 459 40,000  Level Cleveland Center
Sun 11:45:03 PM 41.4944 -82.0275 290° West 399 459 40,000  Level Cleveland Center
Sun 11:46:03 PM 41.5322 -82.1586 291° West 389 448 40,000  Level Cleveland Center
Sun 11:47:03 PM 41.5739 -82.2986 292° West 389 448 40,000  Level Cleveland Center
Sun 11:48:03 PM 41.6075 -82.4217 290° West 394 453 40,000  Level Cleveland Center
Sun 11:49:03 PM 41.6489 -82.5700 291° West 394 453 40,000  Level Cleveland Center
Sun 11:50:03 PM 41.6881 -82.7075 291° West 394 453 40,000  Level Cleveland Center
Sun 11:51:03 PM 41.7269 -82.8450 291° West 394 453 40,000  Level Cleveland Center
Sun 11:52:03 PM 41.7658 -82.9858 290° West 394 453 40,000  Level Cleveland Center
Sun 11:53:03 PM 41.8047 -83.1236 291° West 394 453 40,000  Level Cleveland Center
Sun 11:54:03 PM 41.8411 -83.2617 290° West 394 453 40,000  Level Cleveland Center
Sun 11:55:03 PM 41.8775 -83.3972 290° West 389 448 40,000  Level Cleveland Center
Sun 11:56:03 PM 41.9197 -83.5358 292° West 394 453 40,000  Level Cleveland Center
Sun 11:57:03 PM 41.9500 -83.6600 288° West 394 453 40,000  Level Cleveland Center
Sun 11:58:03 PM 41.9878 -83.7986 290° West 394 453 40,000  Level Cleveland Center
Sun 11:59:03 PM 42.0258 -83.9319 291° West 389 448 40,000  Level Cleveland Center
Mon 12:00:03 AM 42.0633 -84.0711 290° West 389 448 40,000  Level Cleveland Center
Mon 12:01:03 AM 42.1008 -84.2075 290° West 389 448 40,000  Level Cleveland Center
Mon 12:02:03 AM 42.1364 -84.3300 291° West 389 448 40,000  Level Cleveland Center
Mon 12:02:57 AM 42.1717 -84.4650 289° West 392 451 40,000  Level Chicago Center
Mon 12:03:58 AM 42.2078 -84.6033 289° West 392 451 40,000  Level Chicago Center
Mon 12:04:58 AM 42.2444 -84.7394 290° West 389 448 40,000  Level Chicago Center
Mon 12:05:58 AM 42.2794 -84.8756 289° West 386 444 40,000  Level Chicago Center
Mon 12:06:59 AM 42.3156 -85.0125 290° West 386 444 40,000  Level Chicago Center
Mon 12:07:59 AM 42.3497 -85.1500 289° West 387 445 40,000  Level Chicago Center
Mon 12:08:59 AM 42.3856 -85.2897 289° West 391 450 40,000  Level Chicago Center
Mon 12:10:00 AM 42.4208 -85.4294 289° West 393 452 40,000  Level Chicago Center
Mon 12:11:00 AM 42.4558 -85.5694 289° West 393 452 40,000  Level Chicago Center
Mon 12:12:00 AM 42.4911 -85.7089 289° West 392 451 40,000  Level Chicago Center
Mon 12:13:01 AM 42.5258 -85.8494 289° West 392 451 40,000  Level Chicago Center
Mon 12:14:01 AM 42.5606 -85.9928 288° West 397 457 40,000  Level Chicago Center
Mon 12:15:01 AM 42.5953 -86.1344 288° West 396 456 40,000  Level Chicago Center
Mon 12:16:02 AM 42.6303 -86.2742 289° West 391 450 40,000  Level Chicago Center
Mon 12:17:02 AM 42.6633 -86.4122 288° West 384 442 40,000  Level Chicago Center
Mon 12:18:02 AM 42.6978 -86.5497 289° West 383 441 40,000  Level Chicago Center
Mon 12:19:03 AM 42.7306 -86.6889 288° West 384 442 40,000  Level Chicago Center
Mon 12:20:03 AM 42.7633 -86.8267 288° West 383 441 40,000  Level Chicago Center
Mon 12:21:03 AM 42.7961 -86.9650 288° West 384 442 40,000  Level Chicago Center
Mon 12:22:03 AM 42.8281 -87.1031 288° West 383 441 40,000  Level Chicago Center
Mon 12:23:04 AM 42.8614 -87.2433 288° West 389 448 40,000  Level Chicago Center
Mon 12:24:04 AM 42.8989 -87.3989 288° West 393 452 40,000  Level Chicago Center
Mon 12:25:04 AM 42.9311 -87.5406 287° West 389 448 40,000  Level Chicago Center
Mon 12:26:05 AM 42.9653 -87.6817 288° West 390 449 40,000  Level Chicago Center
Mon 12:27:05 AM 42.9967 -87.8247 287° West 393 452 40,000  Level Chicago Center
Mon 12:28:05 AM 43.0289 -87.9692 287° West 395 455 40,000  Level Chicago Center
Mon 12:29:06 AM 43.0611 -88.1122 287° West 392 451 40,000  Level Chicago Center
Mon 12:30:06 AM 43.0928 -88.2553 287° West 389 448 40,000  Level Chicago Center
Mon 12:31:06 AM 43.1247 -88.3992 287° West 392 451 40,000  Level Chicago Center
Mon 12:32:06 AM 43.1569 -88.5439 287° West 391 450 40,000  Level Chicago Center
Mon 12:33:07 AM 43.1889 -88.6897 287° West 395 455 40,000  Level Chicago Center
Mon 12:34:07 AM 43.2211 -88.8350 287° West 396 456 40,000  Level Chicago Center
Mon 12:35:07 AM 43.2531 -88.9794 287° West 395 455 40,000  Level Chicago Center
Mon 12:36:07 AM 43.2853 -89.1258 287° West 396 456 40,000  Level Chicago Center
Mon 12:37:08 AM 43.3156 -89.2703 286° West 394 453 40,000  Level Chicago Center
Mon 12:38:08 AM 43.3469 -89.4147 287° West 394 453 40,000  Level Chicago Center
Mon 12:39:08 AM 43.3767 -89.5619 286° West 396 456 40,000  Level Chicago Center
Mon 12:40:08 AM 43.4064 -89.7089 286° West 399 459 40,000  Level Chicago Center
Mon 12:41:08 AM 43.4372 -89.8553 286° West 397 457 40,000  Level Chicago Center
Mon 12:42:09 AM 43.4683 -90.0000 287° West 396 456 40,000  Level Chicago Center
Mon 12:43:09 AM 43.4975 -90.1475 285° West 398 458 40,000  Level Chicago Center
Mon 12:44:09 AM 43.5267 -90.2933 285° West 397 457 40,000  Level Chicago Center
Mon 12:45:09 AM 43.5533 -90.4236 286° West 396 456 40,000  Level Chicago Center
Mon 12:46:09 AM 43.5831 -90.5672 286° West 394 453 40,000  Level Chicago Center
Mon 12:47:10 AM 43.6122 -90.7103 286° West 393 452 40,000  Level Chicago Center
Mon 12:48:10 AM 43.6400 -90.8533 285° West 391 450 40,000  Level Chicago Center
Mon 12:49:10 AM 43.6686 -90.9978 285° West 395 455 40,000  Level Chicago Center
Mon 12:50:10 AM 43.6983 -91.1450 286° West 400 460 40,000  Level Chicago Center
Mon 12:51:10 AM 43.7322 -91.3192 285° West 396 456 40,000  Level Chicago Center
Mon 12:52:10 AM 43.7597 -91.4647 285° West 398 458 40,000  Level Chicago Center
Mon 12:53:11 AM 43.7872 -91.6089 285° West 395 455 40,000  Level Chicago Center
Mon 12:54:11 AM 43.8139 -91.7536 284° West 394 453 40,000  Level Chicago Center
Mon 12:55:11 AM 43.8419 -91.8989 285° West 394 453 40,000  Level Chicago Center
Mon 12:56:11 AM 43.8689 -92.0433 285° West 394 453 40,000  Level Chicago Center
Mon 12:57:11 AM 43.8953 -92.1883 284° West 394 453 40,000  Level Chicago Center
Mon 12:58:12 AM 43.9214 -92.3339 284° West 394 453 40,000  Level Chicago Center
Mon 12:59:12 AM 43.9489 -92.4783 285° West 393 452 40,000  Level Chicago Center
Mon 01:00:36 AM 43.9842 -92.6808 284° West 393 452 40,000  Level Minneapolis Center
Mon 01:01:36 AM 44.0044 -92.8000 283° West 395 455 40,000  Level Minneapolis Center
Mon 01:02:36 AM 44.0372 -92.9783 284° West 397 457 40,000  Level Minneapolis Center
Mon 01:03:36 AM 44.0631 -93.1281 284° West 398 458 40,000  Level Minneapolis Center
Mon 01:04:37 AM 44.0894 -93.2769 284° West 397 457 40,000  Level Minneapolis Center
Mon 01:05:37 AM 44.1153 -93.4281 283° West 399 459 40,000  Level Minneapolis Center
Mon 01:06:37 AM 44.1406 -93.5781 283° West 398 458 40,000  Level Minneapolis Center
Mon 01:07:37 AM 44.1675 -93.7286 284° West 399 459 40,000  Level Minneapolis Center
Mon 01:08:37 AM 44.1933 -93.8808 283° West 403 464 40,000  Level Minneapolis Center
Mon 01:09:37 AM 44.2186 -94.0319 283° West 401 461 40,000  Level Minneapolis Center
Mon 01:10:38 AM 44.2436 -94.1839 283° West 402 463 40,000  Level Minneapolis Center
Mon 01:11:38 AM 44.2686 -94.3367 283° West 403 464 40,000  Level Minneapolis Center
Mon 01:12:38 AM 44.2939 -94.4878 283° West 402 463 40,000  Level Minneapolis Center
Mon 01:13:38 AM 44.3219 -94.6581 283° West 402 463 40,000  Level Minneapolis Center
Mon 01:14:38 AM 44.3453 -94.8081 282° West 399 459 40,000  Level Minneapolis Center
Mon 01:15:38 AM 44.3694 -94.9578 283° West 398 458 40,000  Level Minneapolis Center
Mon 01:16:39 AM 44.3933 -95.1083 283° West 397 457 40,000  Level Minneapolis Center
Mon 01:17:39 AM 44.4153 -95.2575 282° West 394 453 40,000  Level Minneapolis Center
Mon 01:18:39 AM 44.4378 -95.4072 282° West 395 455 40,000  Level Minneapolis Center
Mon 01:19:39 AM 44.4603 -95.5567 282° West 396 456 40,000  Level Minneapolis Center
Mon 01:20:39 AM 44.4836 -95.7056 282° West 395 455 40,000  Level Minneapolis Center
Mon 01:21:40 AM 44.5058 -95.8539 282° West 393 452 40,000  Level Minneapolis Center
Mon 01:22:40 AM 44.5275 -96.0022 282° West 393 452 40,000  Level Minneapolis Center
Mon 01:23:40 AM 44.5486 -96.1503 281° West 393 452 40,000  Level Minneapolis Center
Mon 01:24:40 AM 44.5706 -96.2989 282° West 393 452 40,000  Level Minneapolis Center
Mon 01:25:40 AM 44.5914 -96.4469 281° West 392 451 40,000  Level Minneapolis Center
Mon 01:26:40 AM 44.6108 -96.5958 280° West 390 449 40,000  Level Minneapolis Center
Mon 01:27:41 AM 44.6328 -96.7453 282° West 393 452 40,000  Level Minneapolis Center
Mon 01:28:41 AM 44.6542 -96.8947 281° West 392 451 40,000  Level Minneapolis Center
Mon 01:29:41 AM 44.6747 -97.0450 281° West 393 452 40,000  Level Minneapolis Center
Mon 01:30:41 AM 44.6942 -97.1950 280° West 393 452 40,000  Level Minneapolis Center
Mon 01:31:41 AM 44.7144 -97.3450 281° West 393 452 40,000  Level Minneapolis Center
Mon 01:32:41 AM 44.7350 -97.4947 281° West 392 451 40,000  Level Minneapolis Center
Mon 01:33:41 AM 44.7547 -97.6439 281° West 390 449 40,000  Level Minneapolis Center
Mon 01:34:41 AM 44.7742 -97.7911 281° West 387 445 40,000  Level Minneapolis Center
Mon 01:35:42 AM 44.7942 -97.9394 281° West 387 445 40,000  Level Minneapolis Center
Mon 01:36:42 AM 44.8122 -98.0858 280° West 384 442 40,000  Level Minneapolis Center
Mon 01:37:42 AM 44.8328 -98.2333 281° West 385 443 40,000  Level Minneapolis Center
Mon 01:38:43 AM 44.8492 -98.3797 279° West 382 440 40,000  Level Minneapolis Center
Mon 01:39:43 AM 44.8683 -98.5303 280° West 384 442 40,000  Level Minneapolis Center
Mon 01:41:07 AM 44.8903 -98.7078 280° West 384 442 40,000  Level Minneapolis Center
Mon 01:42:07 AM 44.9117 -98.8872 280° West 386 444 40,000  Level Minneapolis Center
Mon 01:43:07 AM 44.9294 -99.0367 280° West 387 445 40,000  Level Minneapolis Center
Mon 01:44:07 AM 44.9475 -99.1864 280° West 388 447 40,000  Level Minneapolis Center
Mon 01:45:08 AM 44.9656 -99.3364 280° West 388 447 40,000  Level Minneapolis Center
Mon 01:46:08 AM 44.9828 -99.4869 279° West 389 448 40,000  Level Minneapolis Center
Mon 01:47:08 AM 44.9997 -99.6367 279° West 388 447 40,000  Level Minneapolis Center
Mon 01:48:08 AM 45.0161 -99.7867 279° West 388 447 40,000  Level Minneapolis Center
Mon 01:49:08 AM 45.0353 -99.9631 279° West 390 449 40,000  Level Minneapolis Center
Mon 01:50:08 AM 45.0514 -100.1086 279° West 397 457 40,000  Level Minneapolis Center
Mon 01:51:08 AM 45.0678 -100.2597 279° West 393 452 40,000  Level Minneapolis Center
Mon 01:52:09 AM 45.0844 -100.4117 279° West 392 451 40,000  Level Minneapolis Center
Mon 01:53:09 AM 45.1006 -100.5644 279° West 392 451 40,000  Level Minneapolis Center
Mon 01:54:09 AM 45.1164 -100.7175 278° West 393 452 40,000  Level Minneapolis Center
Mon 01:55:09 AM 45.1319 -100.8700 278° West 393 452 40,000  Level Minneapolis Center
Mon 01:56:09 AM 45.1475 -101.0222 278° West 392 451 40,000  Level Minneapolis Center
Mon 01:57:09 AM 45.1614 -101.1767 277° West 393 452 40,000  Level Minneapolis Center
Mon 01:58:09 AM 45.1772 -101.3297 278° West 394 453 40,000  Level Minneapolis Center
Mon 01:59:10 AM 45.1947 -101.4822 279° West 393 452 40,000  Level Minneapolis Center
Mon 02:00:10 AM 45.2122 -101.6358 279° West 394 453 40,000  Level Minneapolis Center
Mon 02:01:10 AM 45.2278 -101.7894 278° West 394 453 40,000  Level Minneapolis Center
Mon 02:02:10 AM 45.2436 -101.9431 278° West 394 453 40,000  Level Minneapolis Center
Mon 02:03:10 AM 45.2589 -102.0961 278° West 394 453 40,000  Level Minneapolis Center
Mon 02:04:10 AM 45.2744 -102.2508 278° West 394 453 40,000  Level Minneapolis Center
Mon 02:05:10 AM 45.2906 -102.4061 278° West 396 456 40,000  Level Minneapolis Center
Mon 02:06:11 AM 45.3058 -102.5603 278° West 396 456 40,000  Level Minneapolis Center
Mon 02:07:11 AM 45.3214 -102.7153 278° West 396 456 40,000  Level Minneapolis Center
Mon 02:08:11 AM 45.3364 -102.8706 278° West 397 457 40,000  Level Minneapolis Center
Mon 02:09:11 AM 45.3511 -103.0258 278° West 397 457 40,000  Level Minneapolis Center
Mon 02:10:11 AM 45.3644 -103.1822 277° West 397 457 40,000  Level Minneapolis Center
Mon 02:11:15 AM 45.3819 -103.3353 279° West 402 463 40,000  Level Salt Lake Center
Mon 02:12:15 AM 45.3964 -103.4928 277° West 402 463 40,000  Level Salt Lake Center
Mon 02:13:15 AM 45.4108 -103.6497 278° West 402 463 40,000  Level Salt Lake Center
Mon 02:14:16 AM 45.4250 -103.8069 277° West 402 463 40,000  Level Salt Lake Center
Mon 02:15:16 AM 45.4381 -103.9642 277° West 401 461 40,000  Level Salt Lake Center
Mon 02:16:16 AM 45.4514 -104.1228 277° West 403 464 40,000  Level Salt Lake Center
Mon 02:17:17 AM 45.4650 -104.2786 277° West 400 460 40,000  Level Salt Lake Center
Mon 02:18:17 AM 45.4781 -104.4350 277° West 399 459 40,000  Level Salt Lake Center
Mon 02:19:17 AM 45.4919 -104.6078 277° West 401 461 40,000  Level Salt Lake Center
Mon 02:20:18 AM 45.5047 -104.7631 277° West 397 457 40,000  Level Salt Lake Center
Mon 02:21:18 AM 45.5164 -104.9178 276° West 397 457 40,000  Level Salt Lake Center
Mon 02:22:18 AM 45.5289 -105.0747 277° West 398 458 40,000  Level Salt Lake Center
Mon 02:23:19 AM 45.5394 -105.2294 276° West 396 456 40,000  Level Salt Lake Center
Mon 02:24:19 AM 45.5514 -105.3869 276° West 399 459 40,000  Level Salt Lake Center
Mon 02:25:19 AM 45.5642 -105.5425 277° West 398 458 40,000  Level Salt Lake Center
Mon 02:26:20 AM 45.5750 -105.6997 276° West 399 459 40,000  Level Salt Lake Center
Mon 02:27:20 AM 45.5858 -105.8583 276° West 401 461 40,000  Level Salt Lake Center
Mon 02:28:20 AM 45.5969 -106.0147 276° West 400 460 40,000  Level Salt Lake Center
Mon 02:29:21 AM 45.6069 -106.1708 275° West 399 459 40,000  Level Salt Lake Center
Mon 02:30:21 AM 45.6167 -106.3269 275° West 397 457 40,000  Level Salt Lake Center
Mon 02:31:21 AM 45.6275 -106.4853 276° West 402 463 40,000  Level Salt Lake Center
Mon 02:32:22 AM 45.6342 -106.6389 274° West 395 455 40,000  Level Salt Lake Center
Mon 02:33:22 AM 45.6444 -106.7978 275° West 398 458 40,000  Level Salt Lake Center
Mon 02:34:23 AM 45.6547 -106.9589 275° West 405 466 40,000  Level Salt Lake Center
Mon 02:35:23 AM 45.6678 -107.1508 276° West 407 468 40,000  Level Salt Lake Center
Mon 02:36:23 AM 45.6764 -107.3072 275° West 403 464 40,000  Level Salt Lake Center
Mon 02:37:24 AM 45.6847 -107.4656 274° West 401 461 40,000  Level Salt Lake Center
Mon 02:38:24 AM 45.6939 -107.6244 275° West 404 465 40,000 -100 Level Salt Lake Center
Mon 02:39:24 AM 45.7017 -107.7803 274° West 397 457 39,800 -1,091 Descending Salt Lake Center
Mon 02:40:25 AM 45.7097 -107.9350 274° West 395 455 37,800 -2,033 Descending Salt Lake Center
Mon 02:41:25 AM 45.7175 -108.0883 274° West 390 449 35,700 -2,100 Descending Salt Lake Center
Mon 02:42:25 AM 45.7244 -108.2475 274° West 400 460 33,600 -2,132 Descending Salt Lake Center
Mon 02:43:26 AM 45.7322 -108.4144 274° West 418 481 31,400 -2,182 Descending Salt Lake Center
Mon 02:44:26 AM 45.7392 -108.5808 273° West 422 486 29,200 -2,250 Descending Salt Lake Center
Mon 02:45:26 AM 45.7472 -108.7492 274° West 427 491 26,900 -2,281 Descending Salt Lake Center
Mon 02:46:27 AM 45.7547 -108.9106 274° West 411 473 24,600 -2,132 Descending Salt Lake Center
Mon 02:47:27 AM 45.7614 -109.0658 274° West 395 455 22,600 -2,050 Descending Salt Lake Center
Mon 02:48:27 AM 45.7681 -109.2233 274° West 397 457 20,500 -2,182 Descending Salt Lake Center
Mon 02:49:28 AM 45.7747 -109.3886 273° West 387 445 18,200 -1,983 Descending Salt Lake Center
Mon 02:50:28 AM 45.7794 -109.5283 273° West 359 413 16,500 -1,100 Descending Salt Lake Center
Mon 02:51:28 AM 45.7844 -109.6647 273° West 350 403 16,000 -942 Descending Salt Lake Center
Mon 02:52:29 AM 45.7900 -109.8033 273° West 352 405 14,600 -1,884 Descending Salt Lake Center
Mon 02:53:29 AM 45.7939 -109.9325 273° West 349 402 12,200 -2,400 Descending Salt Lake Center
Mon 02:55:00 AM 45.7531 -110.1567 267° West  Level Estimated
Mon 03:02:00 AM 45.6833 -110.4333 267° West  Level FlightAware Approximate
Mon 03:03:00 AM 45.6994 -110.4480 267° West  Level Estimated
Mon 03:04:00 AM 45.6994 -110.4480 267° West  Level Estimated
Mon 03:05:00 AM 45.6994 -110.4480 267° West  Level Estimated
Mon 03:06:00 AM 45.6994 -110.4480 267° West  Level Estimated
Mon 03:07:00 AM 45.6994 -110.4480 267° West  Level Estimated
Mon 03:08:00 AM 45.6994 -110.4480 267° West  Level Estimated
Mon 03:09:00 AM 45.6994 -110.4480 267° West  Level Estimated
Mon 03:10:00 AM 45.6994 -110.4480 267° West  Level Estimated
Mon 03:11:00 AM 45.6994 -110.4480 267° West  Level Estimated
Mon 03:12:00 AM 45.6994 -110.4480 267° West  Level Estimated
Mon 03:13:00 AM 45.6994 -110.4480 267° West  Level Estimated
Mon 03:14:00 AM 45.6994 -110.4480 267° West  Level Estimated

Login

Don't have an account? Register now (free) for customized features, flight alerts, and more!